Time;durP1;ratioP1;P1;durP2;ratioP2;P2;SDS_P1;SDS_P2;PMS_P1;PMS_P2;Temp;Humidity;BMP_temperature;BMP_pressure;BME280_temperature;BME280_humidity;BME280_pressure;Samples;Min_cycle;Max_cycle;Signal;HPM_P1;HPM_P2
2021/06/17 00:00:13;;;;;;;9.67;8.03;;;21.10;99.40;;;;;;5079424;28;20448;-76
2021/06/17 00:02:40;;;;;;;14.67;9.00;;;21.00;99.70;;;;;;5107819;28;20429;-76
2021/06/17 00:05:09;;;;;;;7.83;6.97;;;20.90;99.90;;;;;;5107999;28;20427;-76
2021/06/17 00:07:37;;;;;;;10.20;7.60;;;21.00;99.60;;;;;;5091145;28;20461;-76
2021/06/17 00:10:06;;;;;;;9.13;8.03;;;21.00;99.30;;;;;;5091586;28;20445;-76
2021/06/17 00:12:33;;;;;;;16.80;8.33;;;21.00;99.50;;;;;;5090749;28;20457;-76
2021/06/17 00:15:01;;;;;;;10.67;7.60;;;20.90;99.40;;;;;;5090268;28;20430;-76
2021/06/17 00:17:28;;;;;;;7.80;7.00;;;20.80;99.50;;;;;;5107179;28;20427;-76
2021/06/17 00:19:55;;;;;;;9.50;7.77;;;20.70;99.40;;;;;;5091428;28;20760;-76
2021/06/17 00:22:22;;;;;;;11.03;6.37;;;20.80;99.10;;;;;;5096431;28;20446;-76
2021/06/17 00:24:51;;;;;;;6.37;5.77;;;20.90;98.40;;;;;;5071903;28;20520;-76
2021/06/17 00:27:18;;;;;;;10.60;5.80;;;21.00;98.00;;;;;;5071253;28;20487;-76
2021/06/17 00:29:45;;;;;;;9.93;6.20;;;21.00;97.50;;;;;;5070020;28;20439;-76
2021/06/17 00:32:12;;;;;;;5.63;5.13;;;21.10;97.50;;;;;;5092385;28;20451;-76
2021/06/17 00:34:39;;;;;;;8.60;6.60;;;21.00;97.40;;;;;;5095843;28;20987;-76
2021/06/17 00:37:09;;;;;;;8.07;5.50;;;20.90;97.80;;;;;;5094687;28;20484;-76
2021/06/17 00:39:37;;;;;;;5.93;5.40;;;20.90;97.50;;;;;;5080872;28;20947;-76
2021/06/17 00:42:05;;;;;;;6.63;5.57;;;21.00;97.20;;;;;;5075141;28;20483;-75
2021/06/17 00:44:32;;;;;;;6.53;5.83;;;21.00;96.90;;;;;;5078505;28;21030;-76
2021/06/17 00:46:59;;;;;;;6.10;5.50;;;21.10;96.80;;;;;;5095159;28;20480;-76
2021/06/17 00:49:27;;;;;;;6.30;5.43;;;21.00;96.70;;;;;;5094214;28;20456;-76
2021/06/17 00:51:54;;;;;;;5.90;5.23;;;21.10;96.60;;;;;;5104291;28;20552;-76
2021/06/17 00:54:33;;;;;;;6.07;5.57;;;21.00;96.20;;;;;;5075376;28;20420;-75
2021/06/17 00:57:03;;;;;;;6.23;5.43;;;21.00;96.20;;;;;;5074984;28;20465;-76
2021/06/17 00:59:33;;;;;;;6.17;5.20;;;21.00;96.30;;;;;;5094321;28;20478;-76
2021/06/17 01:02:00;;;;;;;5.80;5.30;;;21.00;96.20;;;;;;5095000;28;20466;-76
2021/06/17 01:04:28;;;;;;;9.50;6.13;;;21.00;96.20;;;;;;5077435;28;20435;-76
2021/06/17 01:06:56;;;;;;;6.20;4.90;;;20.90;96.50;;;;;;5087919;28;20477;-76
2021/06/17 01:09:41;;;;;;;6.33;5.27;;;20.70;96.70;;;;;;5074889;28;20435;-76
2021/06/17 01:12:47;;;;;;;6.77;5.37;;;20.70;97.00;;;;;;5073148;28;20456;-76
2021/06/17 01:15:19;;;;;;;9.47;6.00;;;20.60;97.00;;;;;;5074857;28;20450;-76
2021/06/17 01:17:55;;;;;;;7.20;5.77;;;20.60;97.00;;;;;;5073371;28;20439;-76
2021/06/17 01:20:30;;;;;;;9.80;6.17;;;20.50;96.90;;;;;;5074458;28;20546;-76
2021/06/17 01:23:25;;;;;;;5.83;5.33;;;20.40;97.30;;;;;;5090407;28;20991;-75
2021/06/17 01:26:18;;;;;;;8.20;5.80;;;20.40;97.50;;;;;;5074403;28;20453;-76
2021/06/17 01:28:47;;;;;;;6.30;5.37;;;20.30;97.60;;;;;;5073071;28;20846;-76
2021/06/17 01:31:18;;;;;;;7.23;6.53;;;20.30;97.70;;;;;;5075290;28;21022;-76
2021/06/17 01:33:48;;;;;;;6.10;5.50;;;20.30;97.70;;;;;;5095012;28;20451;-76
2021/06/17 01:36:20;;;;;;;7.13;5.60;;;20.40;97.50;;;;;;5092160;28;21232;-76
2021/06/17 01:38:52;;;;;;;8.70;6.47;;;20.30;97.30;;;;;;5073029;28;20457;-76
2021/06/17 01:41:27;;;;;;;8.43;6.10;;;20.20;97.50;;;;;;5072887;28;20545;-76
2021/06/17 01:43:55;;;;;;;10.60;6.73;;;20.20;97.40;;;;;;5073662;28;20430;-76
2021/06/17 01:46:23;;;;;;;6.93;5.27;;;20.20;97.50;;;;;;5074363;28;20883;-76
2021/06/17 01:48:53;;;;;;;11.07;6.43;;;20.20;97.60;;;;;;5072833;28;20836;-76
2021/06/17 01:51:22;;;;;;;8.83;5.13;;;20.20;97.50;;;;;;5074641;28;20552;-76
2021/06/17 01:53:50;;;;;;;8.33;6.50;;;20.10;97.70;;;;;;5092197;28;20439;-76
2021/06/17 01:56:22;;;;;;;6.27;5.67;;;20.10;97.60;;;;;;5092742;28;20458;-76
2021/06/17 01:58:55;;;;;;;7.90;6.03;;;20.10;97.50;;;;;;5094084;28;20788;-76
2021/06/17 02:01:29;;;;;;;6.43;5.93;;;20.00;97.50;;;;;;5075025;28;20485;-76
2021/06/17 02:03:58;;;;;;;7.27;5.07;;;20.10;97.30;;;;;;5093199;28;20935;-75
2021/06/17 02:06:29;;;;;;;7.17;6.37;;;19.90;97.80;;;;;;5101547;28;20568;-75
2021/06/17 02:08:58;;;;;;;6.63;5.80;;;19.90;98.10;;;;;;5092516;28;20479;-76
2021/06/17 02:11:26;;;;;;;6.00;5.37;;;19.80;98.20;;;;;;5092417;28;20461;-76
2021/06/17 02:13:54;;;;;;;7.10;5.70;;;19.80;98.00;;;;;;5093607;28;20440;-76
2021/06/17 02:16:24;;;;;;;8.57;6.20;;;19.90;97.70;;;;;;5079960;28;20561;-76
2021/06/17 02:18:54;;;;;;;7.60;6.20;;;19.90;97.40;;;;;;5073605;28;20441;-76
2021/06/17 02:21:21;;;;;;;7.03;5.80;;;20.00;97.20;;;;;;5075155;28;20462;-76
2021/06/17 02:23:53;;;;;;;6.17;5.30;;;19.90;97.10;;;;;;5093922;28;20928;-76
2021/06/17 02:26:22;;;;;;;8.50;6.20;;;19.90;97.30;;;;;;5093356;28;20488;-76
2021/06/17 02:28:50;;;;;;;6.57;5.97;;;19.90;97.20;;;;;;5093537;28;20469;-76
2021/06/17 02:31:21;;;;;;;6.73;5.60;;;19.90;97.10;;;;;;5092966;28;21012;-76
2021/06/17 02:33:50;;;;;;;6.70;6.00;;;19.90;97.10;;;;;;5093883;28;20412;-76
2021/06/17 02:36:22;;;;;;;10.83;6.10;;;19.80;97.10;;;;;;5091623;28;20502;-76
2021/06/17 02:38:51;;;;;;;6.40;5.63;;;19.80;97.20;;;;;;5090347;28;20456;-76
2021/06/17 02:41:20;;;;;;;7.40;5.70;;;19.80;97.30;;;;;;5072820;28;20801;-76
2021/06/17 02:43:51;;;;;;;6.50;5.90;;;19.70;97.50;;;;;;5073255;28;20924;-76
2021/06/17 02:46:18;;;;;;;7.43;6.70;;;19.70;97.60;;;;;;5073312;28;20871;-76
2021/06/17 02:48:45;;;;;;;6.73;6.03;;;19.70;97.70;;;;;;5072835;28;20476;-76
2021/06/17 02:51:12;;;;;;;7.80;6.53;;;19.60;97.80;;;;;;5073194;28;20545;-76
2021/06/17 02:53:38;;;;;;;7.00;6.10;;;19.60;97.70;;;;;;5093291;28;20421;-76
2021/06/17 02:56:11;;;;;;;7.80;6.00;;;19.60;97.80;;;;;;5091777;28;20475;-76
2021/06/17 02:59:11;;;;;;;7.30;6.00;;;19.50;98.10;;;;;;5092965;28;20441;-76
2021/06/17 03:01:51;;;;;;;8.00;6.70;;;19.50;98.00;;;;;;5082807;28;20487;-76
2021/06/17 03:04:27;;;;;;;9.90;6.07;;;19.30;98.40;;;;;;5109470;27;20436;-76
2021/06/17 03:06:55;;;;;;;7.37;6.03;;;19.30;98.50;;;;;;5092853;28;20473;-76
2021/06/17 03:09:28;;;;;;;6.50;5.80;;;19.20;99.00;;;;;;5092819;28;20437;-76
2021/06/17 03:11:57;;;;;;;6.80;5.87;;;19.10;99.50;;;;;;5092599;28;20457;-76
2021/06/17 03:14:51;;;;;;;6.33;5.70;;;19.10;99.70;;;;;;5092163;28;20532;-76
2021/06/17 03:17:20;;;;;;;8.10;6.20;;;19.20;99.10;;;;;;5070607;28;20828;-76
2021/06/17 03:19:52;;;;;;;8.07;6.60;;;19.30;99.10;;;;;;5071148;28;21001;-76
2021/06/17 03:22:21;;;;;;;8.53;5.40;;;19.30;99.20;;;;;;5071556;28;20485;-76
2021/06/17 03:24:50;;;;;;;9.33;7.73;;;19.20;99.20;;;;;;5072492;28;20418;-76
2021/06/17 03:27:20;;;;;;;12.10;6.97;;;19.20;99.30;;;;;;5070736;28;20466;-76
2021/06/17 03:29:50;;;;;;;7.03;6.07;;;19.20;99.30;;;;;;5087910;28;20538;-76
2021/06/17 03:32:19;;;;;;;7.47;6.73;;;19.20;99.10;;;;;;5070490;28;20971;-76
2021/06/17 03:34:47;;;;;;;6.67;5.90;;;19.10;99.20;;;;;;5072390;28;20442;-76
2021/06/17 03:37:17;;;;;;;11.73;5.80;;;19.10;99.10;;;;;;5072258;28;20490;-76
2021/06/17 03:39:46;;;;;;;8.83;6.87;;;19.20;99.00;;;;;;5087663;28;20950;-76
2021/06/17 03:42:15;;;;;;;8.40;7.50;;;19.20;99.00;;;;;;5071730;28;20474;-76
2021/06/17 03:44:43;;;;;;;6.93;6.27;;;19.20;99.00;;;;;;5070931;28;20792;-76
2021/06/17 03:47:12;;;;;;;7.10;6.10;;;19.20;98.80;;;;;;5080706;28;20468;-76
2021/06/17 03:49:43;;;;;;;7.73;6.03;;;19.30;98.80;;;;;;5091020;28;20449;-76
2021/06/17 03:52:15;;;;;;;9.03;6.30;;;19.30;99.00;;;;;;5086679;28;20550;-76
2021/06/17 03:54:47;;;;;;;11.97;6.53;;;19.30;99.10;;;;;;5070790;28;20438;-76
2021/06/17 03:57:21;;;;;;;8.63;5.97;;;19.20;99.40;;;;;;5071882;28;20443;-76
2021/06/17 03:59:55;;;;;;;9.83;6.53;;;19.20;99.90;;;;;;5076225;28;20481;-76
2021/06/17 04:02:27;;;;;;;13.97;5.70;;;19.10;99.90;;;;;;5087085;28;20464;-76
2021/06/17 04:04:55;;;;;;;6.63;5.90;;;19.10;99.90;;;;;;5070704;28;20485;-76
2021/06/17 04:07:24;;;;;;;9.03;5.60;;;19.10;99.90;;;;;;5077113;28;20955;-76
2021/06/17 04:09:54;;;;;;;10.37;6.03;;;19.20;99.90;;;;;;5070099;28;20956;-76
2021/06/17 04:12:23;;;;;;;8.20;6.20;;;19.20;99.90;;;;;;5071848;28;20415;-76
2021/06/17 04:14:53;;;;;;;7.40;6.67;;;19.40;99.90;;;;;;5069668;28;20940;-76
2021/06/17 04:17:29;;;;;;;7.30;5.70;;;19.50;99.90;;;;;;5070680;28;20438;-76
2021/06/17 04:20:04;;;;;;;8.07;5.67;;;19.60;99.90;;;;;;5071814;28;20413;-76
2021/06/17 04:22:31;;;;;;;6.60;5.77;;;19.70;99.40;;;;;;5072315;28;20529;-76
2021/06/17 04:25:04;;;;;;;6.87;6.27;;;19.80;99.40;;;;;;5086065;28;20419;-76
2021/06/17 04:27:33;;;;;;;6.77;6.13;;;19.80;99.80;;;;;;5070065;28;20797;-76
2021/06/17 04:30:06;;;;;;;8.63;5.97;;;19.90;99.20;;;;;;5060236;28;20939;-76
2021/06/17 04:32:35;;;;;;;6.27;5.67;;;20.00;99.00;;;;;;5070735;28;20427;-76
2021/06/17 04:35:03;;;;;;;7.20;5.60;;;20.00;98.90;;;;;;5069038;28;20447;-76
2021/06/17 04:37:31;;;;;;;7.30;6.00;;;20.00;98.50;;;;;;5075421;28;20430;-76
2021/06/17 04:40:03;;;;;;;7.27;6.57;;;20.00;98.70;;;;;;5069440;28;20415;-76
2021/06/17 04:42:33;;;;;;;7.70;5.50;;;20.10;98.50;;;;;;5070404;28;20422;-76
2021/06/17 04:45:01;;;;;;;7.13;6.43;;;20.10;98.40;;;;;;5070670;28;20429;-76
2021/06/17 04:47:28;;;;;;;7.90;6.47;;;20.20;98.60;;;;;;5081119;28;21309;-76
2021/06/17 04:50:05;;;;;;;7.43;5.20;;;20.20;98.20;;;;;;5071591;28;20446;-76
2021/06/17 04:52:50;;;;;;;8.13;6.60;;;20.40;98.50;;;;;;5086515;28;20446;-76
2021/06/17 04:55:18;;;;;;;8.80;6.37;;;20.50;98.30;;;;;;5069543;28;20448;-76
2021/06/17 04:57:48;;;;;;;6.70;5.57;;;20.50;98.20;;;;;;5069959;28;20434;-75
2021/06/17 05:00:16;;;;;;;6.83;6.07;;;20.60;98.20;;;;;;5095825;28;20451;-76
2021/06/17 05:02:43;;;;;;;7.17;6.40;;;20.70;98.00;;;;;;5090922;28;20437;-76
2021/06/17 05:05:10;;;;;;;6.80;6.10;;;20.80;98.30;;;;;;5091029;28;21001;-76
2021/06/17 05:12:52;;;;;;;5.87;5.03;;;21.20;97.00;;;;;;5091595;28;20423;-76
2021/06/17 05:15:20;;;;;;;8.57;5.23;;;21.40;96.50;;;;;;5089781;28;20453;-76
2021/06/17 05:17:49;;;;;;;6.40;5.80;;;21.50;95.90;;;;;;5090576;28;20456;-76
2021/06/17 05:20:16;;;;;;;5.87;5.37;;;21.70;95.20;;;;;;5093214;28;20811;-77
2021/06/17 05:22:44;;;;;;;6.03;5.53;;;21.80;95.00;;;;;;5094703;28;20466;-76
2021/06/17 05:25:13;;;;;;;5.90;5.23;;;21.90;94.40;;;;;;5094383;28;20456;-77
2021/06/17 05:27:40;;;;;;;6.03;5.37;;;21.90;94.60;;;;;;5094704;28;20495;-77
2021/06/17 05:30:08;;;;;;;6.00;5.50;;;21.80;94.50;;;;;;5094454;28;20564;-76
2021/06/17 05:32:42;;;;;;;7.50;5.07;;;21.90;94.10;;;;;;5093178;28;20442;-76
2021/06/17 05:35:09;;;;;;;6.40;5.80;;;21.90;94.00;;;;;;5093049;28;20452;-76
2021/06/17 05:37:40;;;;;;;6.20;5.60;;;21.90;94.30;;;;;;5093975;28;20519;-76
2021/06/17 05:40:08;;;;;;;6.20;5.60;;;21.90;94.00;;;;;;5092832;28;20954;-76
2021/06/17 05:42:34;;;;;;;5.97;5.37;;;21.90;94.20;;;;;;5093570;28;20425;-76
2021/06/17 05:45:01;;;;;;;6.37;5.77;;;21.90;94.20;;;;;;5092815;28;21003;-76
2021/06/17 05:47:29;;;;;;;5.77;5.23;;;21.90;94.20;;;;;;5093557;28;20442;-76
2021/06/17 05:49:58;;;;;;;6.30;5.80;;;22.00;94.80;;;;;;5073714;28;20466;-76
2021/06/17 05:52:25;;;;;;;6.13;5.40;;;21.90;94.50;;;;;;5085141;28;20544;-76
2021/06/17 05:54:52;;;;;;;9.47;5.40;;;22.00;94.40;;;;;;5094498;28;20413;-76
2021/06/17 05:57:21;;;;;;;7.30;6.33;;;22.00;94.20;;;;;;5094139;28;20413;-76
2021/06/17 05:59:48;;;;;;;6.47;5.50;;;22.10;94.40;;;;;;5092407;28;21010;-76
2021/06/17 06:02:15;;;;;;;6.90;6.07;;;22.20;94.30;;;;;;5085575;28;20448;-76
2021/06/17 06:04:42;;;;;;;9.63;5.30;;;22.20;94.10;;;;;;5094257;28;20445;-76
2021/06/17 06:07:09;;;;;;;7.73;6.17;;;22.40;94.80;;;;;;5084755;28;20477;-76
2021/06/17 06:09:43;;;;;;;5.70;5.20;;;22.60;93.60;;;;;;5073889;28;20465;-76
2021/06/17 06:12:12;;;;;;;5.80;5.30;;;22.80;93.50;;;;;;5073595;28;20959;-76
2021/06/17 06:14:41;;;;;;;9.60;5.90;;;23.20;93.20;;;;;;5073777;28;20434;-76
2021/06/17 06:17:08;;;;;;;8.33;5.30;;;23.70;92.60;;;;;;5055073;28;20484;-76
2021/06/17 06:19:36;;;;;;;6.83;5.37;;;24.00;91.10;;;;;;5071988;28;20456;-76
2021/06/17 06:22:05;;;;;;;5.90;5.30;;;24.40;90.60;;;;;;5093223;28;20477;-77
2021/06/17 06:24:37;;;;;;;6.57;5.97;;;24.60;89.30;;;;;;5077599;28;20568;-77
2021/06/17 06:27:05;;;;;;;6.20;5.23;;;24.80;88.90;;;;;;5073385;28;20547;-77
2021/06/17 06:29:32;;;;;;;5.93;5.43;;;24.90;87.80;;;;;;5084864;28;20854;-77
2021/06/17 06:32:00;;;;;;;6.80;4.60;;;25.00;86.50;;;;;;5062141;28;20475;-77
2021/06/17 06:34:28;;;;;;;5.23;4.83;;;25.10;85.80;;;;;;5072251;28;20423;-77
2021/06/17 06:36:57;;;;;;;5.93;5.43;;;25.20;84.60;;;;;;5055336;28;20502;-77
2021/06/17 06:39:23;;;;;;;7.03;5.37;;;25.30;85.30;;;;;;5088193;28;20547;-78
2021/06/17 06:41:51;;;;;;;5.23;4.37;;;25.40;86.80;;;;;;5075154;28;20547;-77
2021/06/17 06:44:22;;;;;;;6.07;5.47;;;25.60;86.50;;;;;;5071927;28;20486;-77
2021/06/17 06:46:51;;;;;;;11.03;6.50;;;25.60;84.50;;;;;;5071678;28;20565;-77
2021/06/17 06:49:18;;;;;;;7.40;5.33;;;25.70;84.00;;;;;;5072619;28;20470;-77
2021/06/17 06:51:48;;;;;;;6.67;4.87;;;25.70;84.40;;;;;;5073755;28;20476;-75
2021/06/17 06:54:18;;;;;;;7.10;5.43;;;25.70;83.60;;;;;;5071789;28;20421;-75
2021/06/17 06:56:47;;;;;;;6.93;6.00;;;25.80;83.20;;;;;;5072543;28;20581;-75
2021/06/17 06:59:14;;;;;;;7.27;5.47;;;25.90;83.60;;;;;;5076189;28;20464;-75
2021/06/17 07:01:42;;;;;;;5.90;5.10;;;26.00;82.90;;;;;;5107546;28;20465;-77
2021/06/17 07:04:15;;;;;;;7.57;5.17;;;25.90;84.10;;;;;;5091817;28;20437;-75
2021/06/17 07:06:45;;;;;;;7.00;4.87;;;26.00;83.60;;;;;;5083793;28;20464;-76
2021/06/17 07:09:14;;;;;;;8.20;5.40;;;26.10;80.90;;;;;;5092778;28;20568;-76
2021/06/17 07:11:45;;;;;;;6.20;5.30;;;26.30;79.50;;;;;;5092708;28;20461;-75
2021/06/17 07:14:13;;;;;;;9.30;5.00;;;26.30;80.50;;;;;;5091659;28;20524;-75
2021/06/17 07:16:40;;;;;;;5.80;5.30;;;26.50;78.70;;;;;;5100085;28;20465;-77
2021/06/17 07:19:07;;;;;;;6.27;5.67;;;26.60;75.80;;;;;;5092123;28;20544;-75
2021/06/17 07:21:37;;;;;;;4.80;4.40;;;26.70;77.60;;;;;;5087120;28;20975;-75
2021/06/17 07:24:05;;;;;;;7.17;4.40;;;26.80;76.60;;;;;;5072386;28;20422;-76
2021/06/17 07:26:34;;;;;;;5.57;4.60;;;26.90;76.20;;;;;;5070681;28;20453;-75
2021/06/17 07:29:04;;;;;;;5.10;4.60;;;27.10;71.60;;;;;;5071259;28;21525;-75
2021/06/17 07:31:32;;;;;;;7.37;4.70;;;27.10;72.50;;;;;;5070447;28;20508;-75
2021/06/17 07:33:59;;;;;;;6.40;5.90;;;27.30;71.10;;;;;;5072302;28;20461;-75
2021/06/17 07:36:26;;;;;;;5.10;4.70;;;27.50;69.70;;;;;;5055966;28;21097;-75
2021/06/17 07:38:53;;;;;;;4.87;4.47;;;27.60;67.40;;;;;;5091990;28;20856;-76
2021/06/17 07:41:23;;;;;;;5.63;4.80;;;27.70;67.60;;;;;;5091353;28;20457;-76
2021/06/17 07:43:51;;;;;;;8.00;4.83;;;27.80;66.80;;;;;;5108169;28;20442;-76
2021/06/17 07:46:21;;;;;;;6.43;4.80;;;27.80;64.80;;;;;;5096534;28;20627;-75
2021/06/17 07:48:49;;;;;;;6.00;5.00;;;27.90;63.00;;;;;;5070682;28;20492;-76
2021/06/17 07:51:16;;;;;;;4.40;4.00;;;28.10;61.70;;;;;;5071736;28;20450;-76
2021/06/17 07:53:44;;;;;;;4.50;4.20;;;28.20;61.50;;;;;;5072036;28;20586;-75
2021/06/17 07:56:14;;;;;;;5.03;4.70;;;28.50;56.30;;;;;;5071511;28;20545;-75
2021/06/17 07:58:45;;;;;;;6.97;4.53;;;28.50;52.90;;;;;;5054131;28;20989;-75
2021/06/17 08:01:15;;;;;;;4.93;4.60;;;28.60;53.10;;;;;;5072465;28;20473;-75
2021/06/17 08:03:43;;;;;;;4.70;3.80;;;28.70;55.40;;;;;;5090737;28;20935;-75
2021/06/17 08:06:10;;;;;;;5.27;4.07;;;28.90;52.40;;;;;;5090566;28;20465;-76
2021/06/17 08:08:37;;;;;;;4.40;4.00;;;29.10;52.10;;;;;;5070124;28;20481;-75
2021/06/17 08:11:05;;;;;;;4.40;3.93;;;29.10;52.20;;;;;;5070873;28;20874;-75
2021/06/17 08:13:50;;;;;;;4.93;4.50;;;29.10;51.30;;;;;;5071610;28;20426;-75
2021/06/17 08:16:22;;;;;;;6.60;6.10;;;29.20;50.50;;;;;;5071268;28;20469;-75
2021/06/17 08:18:53;;;;;;;4.60;4.20;;;29.30;50.00;;;;;;5090380;28;20461;-74
2021/06/17 08:21:24;;;;;;;6.10;4.83;;;29.50;47.70;;;;;;5089301;28;20843;-75
2021/06/17 08:23:54;;;;;;;5.07;4.57;;;29.60;47.40;;;;;;5091860;28;20494;-75
2021/06/17 08:26:22;;;;;;;5.20;4.67;;;29.60;48.60;;;;;;5106257;28;20468;-75
2021/06/17 08:28:49;;;;;;;6.77;4.63;;;29.60;47.30;;;;;;5089723;28;20473;-75
2021/06/17 08:31:17;;;;;;;5.20;4.10;;;29.60;47.50;;;;;;5100462;28;20473;-75
2021/06/17 08:33:45;;;;;;;5.30;4.80;;;29.70;47.90;;;;;;5086978;28;20915;-74
2021/06/17 08:36:11;;;;;;;9.00;6.03;;;29.80;49.10;;;;;;5071296;28;20485;-75
2021/06/17 08:38:40;;;;;;;7.33;6.13;;;29.80;48.40;;;;;;5091406;28;20985;-75
2021/06/17 08:41:09;;;;;;;10.90;9.83;;;29.80;45.90;;;;;;5091059;28;20464;-75
2021/06/17 08:43:50;;;;;;;7.23;6.70;;;30.10;46.70;;;;;;5087131;28;20930;-75
2021/06/17 08:46:18;;;;;;;6.13;5.23;;;30.10;46.20;;;;;;5082166;28;20470;-74
2021/06/17 08:48:49;;;;;;;8.67;5.37;;;30.10;45.60;;;;;;5069896;28;20469;-74
2021/06/17 08:51:22;;;;;;;8.10;5.40;;;30.20;47.20;;;;;;5071750;28;20480;-75
2021/06/17 08:53:52;;;;;;;6.13;5.10;;;30.30;45.80;;;;;;5094721;28;20418;-75
2021/06/17 08:56:26;;;;;;;6.57;5.97;;;30.40;44.70;;;;;;5094996;28;20457;-75
2021/06/17 08:58:59;;;;;;;6.87;6.30;;;30.40;44.80;;;;;;5095281;28;20523;-75
2021/06/17 09:01:29;;;;;;;8.97;5.93;;;30.50;43.10;;;;;;5081762;28;20958;-75
2021/06/17 09:03:58;;;;;;;6.20;5.60;;;30.50;44.80;;;;;;5076102;28;20436;-75
2021/06/17 09:06:29;;;;;;;6.03;5.53;;;30.50;46.20;;;;;;5092208;28;20481;-75
2021/06/17 09:09:00;;;;;;;7.30;5.50;;;30.60;47.70;;;;;;5095038;28;20488;-76
2021/06/17 09:11:28;;;;;;;5.93;5.33;;;30.60;47.90;;;;;;5093532;28;20469;-75
2021/06/17 09:14:18;;;;;;;6.10;5.60;;;30.60;48.80;;;;;;5093342;28;20512;-75
2021/06/17 09:17:07;;;;;;;5.13;4.53;;;30.70;48.20;;;;;;5097917;28;20457;-75
2021/06/17 09:19:44;;;;;;;7.23;5.10;;;30.80;47.60;;;;;;5094065;28;20808;-75
2021/06/17 09:22:16;;;;;;;5.40;4.87;;;30.70;48.00;;;;;;5084348;28;20591;-76
2021/06/17 09:24:53;;;;;;;8.60;6.70;;;30.80;46.70;;;;;;5110858;28;20897;-75
2021/06/17 09:27:26;;;;;;;6.23;5.63;;;30.90;49.30;;;;;;5093306;28;20986;-75
2021/06/17 09:30:16;;;;;;;5.40;5.00;;;30.90;46.30;;;;;;5094164;28;20452;-75
2021/06/17 09:32:49;;;;;;;5.50;5.10;;;31.00;46.20;;;;;;5092897;28;20548;-75
2021/06/17 09:35:17;;;;;;;5.67;5.27;;;31.00;47.70;;;;;;5094408;28;20453;-74
2021/06/17 09:37:45;;;;;;;6.43;5.93;;;31.10;47.60;;;;;;5094037;28;20461;-75
2021/06/17 09:40:29;;;;;;;7.20;6.53;;;31.10;46.20;;;;;;5093969;28;20467;-75
2021/06/17 09:43:14;;;;;;;6.67;6.17;;;31.30;46.80;;;;;;5093470;28;20425;-76
2021/06/17 09:45:55;;;;;;;5.60;5.20;;;31.30;45.60;;;;;;5078546;28;20518;-76
2021/06/17 09:48:46;;;;;;;7.00;6.40;;;31.30;47.80;;;;;;5072774;28;20460;-75
2021/06/17 09:51:22;;;;;;;6.10;5.70;;;31.30;46.00;;;;;;5072925;28;20939;-75
2021/06/17 09:53:51;;;;;;;6.70;6.20;;;31.30;46.20;;;;;;5072935;28;20434;-76
2021/06/17 09:56:33;;;;;;;7.33;6.73;;;31.30;44.90;;;;;;5072512;28;20458;-76
2021/06/17 09:59:12;;;;;;;7.60;6.83;;;31.30;45.70;;;;;;5074013;28;20438;-75
2021/06/17 10:01:43;;;;;;;9.23;7.10;;;31.20;46.80;;;;;;5073791;28;20524;-75
2021/06/17 10:04:16;;;;;;;6.63;5.93;;;31.20;47.40;;;;;;5073401;28;20431;-76
2021/06/17 10:06:46;;;;;;;7.27;6.40;;;31.40;46.20;;;;;;5074063;28;20469;-75
2021/06/17 10:09:23;;;;;;;8.33;5.90;;;31.40;45.30;;;;;;5056725;28;20524;-75
2021/06/17 10:12:00;;;;;;;5.60;5.20;;;31.50;45.80;;;;;;5073830;28;20549;-75
2021/06/17 10:14:32;;;;;;;6.73;6.27;;;31.40;45.50;;;;;;5073736;28;20796;-75
2021/06/17 10:16:59;;;;;;;5.53;5.17;;;31.50;47.70;;;;;;5076435;28;20470;-75
2021/06/17 10:19:31;;;;;;;8.17;6.07;;;31.60;45.60;;;;;;5073523;28;20442;-76
2021/06/17 10:21:59;;;;;;;7.70;5.37;;;31.60;45.30;;;;;;5078291;28;20465;-76
2021/06/17 10:24:34;;;;;;;6.40;5.90;;;31.50;46.40;;;;;;5083625;28;20462;-75
2021/06/17 10:27:11;;;;;;;5.73;5.23;;;31.50;46.60;;;;;;5072671;28;20466;-75
2021/06/17 10:29:47;;;;;;;7.97;6.07;;;31.60;47.00;;;;;;5073645;28;20462;-76
2021/06/17 10:32:31;;;;;;;5.67;5.13;;;31.70;47.60;;;;;;5073171;28;20523;-76
2021/06/17 10:35:03;;;;;;;6.00;5.60;;;31.90;48.20;;;;;;5091617;28;20421;-75
2021/06/17 10:37:47;;;;;;;6.27;5.70;;;32.30;47.00;;;;;;5088121;28;20449;-76
2021/06/17 10:40:14;;;;;;;6.20;5.70;;;32.40;47.00;;;;;;5074102;28;20511;-76
2021/06/17 10:42:46;;;;;;;5.90;5.10;;;32.50;45.10;;;;;;5093485;28;20453;-76
2021/06/17 10:45:39;;;;;;;6.10;5.60;;;32.60;44.60;;;;;;5091732;28;20452;-75
2021/06/17 10:48:14;;;;;;;7.70;6.30;;;32.60;44.30;;;;;;5075242;28;21043;-75
2021/06/17 10:50:46;;;;;;;6.37;5.73;;;32.70;44.00;;;;;;5072683;28;20482;-75
2021/06/17 10:53:18;;;;;;;5.60;5.20;;;32.80;43.10;;;;;;5098342;28;20437;-77
2021/06/17 10:56:01;;;;;;;6.47;5.97;;;33.00;44.80;;;;;;5091420;28;20461;-76
2021/06/17 10:58:41;;;;;;;5.73;5.33;;;33.10;42.80;;;;;;5074659;28;20446;-76
2021/06/17 11:01:29;;;;;;;6.57;6.07;;;33.10;39.90;;;;;;5089291;28;20559;-75
2021/06/17 11:04:17;;;;;;;6.00;5.60;;;32.90;41.70;;;;;;5093232;28;20950;-75
2021/06/17 11:06:51;;;;;;;7.20;6.00;;;32.60;42.30;;;;;;5081695;28;20474;-76
2021/06/17 11:09:35;;;;;;;10.13;5.10;;;32.40;42.40;;;;;;5084457;28;20468;-76
2021/06/17 11:12:25;;;;;;;5.97;5.60;;;32.50;43.70;;;;;;5092522;28;20480;-76
2021/06/17 11:15:01;;;;;;;8.77;6.00;;;32.60;42.20;;;;;;5070684;28;20438;-76
2021/06/17 11:17:34;;;;;;;10.07;5.37;;;32.90;42.50;;;;;;5089132;28;20442;-76
2021/06/17 11:20:05;;;;;;;8.50;5.27;;;32.90;41.70;;;;;;5091910;28;20421;-76
2021/06/17 11:22:34;;;;;;;6.60;6.03;;;33.00;41.90;;;;;;5081174;28;21058;-76
2021/06/17 11:25:21;;;;;;;6.63;5.80;;;33.10;42.40;;;;;;5072099;28;20418;-76
2021/06/17 11:28:04;;;;;;;6.07;5.57;;;33.20;42.90;;;;;;5072175;28;20449;-76
2021/06/17 11:30:42;;;;;;;6.97;6.10;;;33.30;39.80;;;;;;5071653;28;20515;-75
2021/06/17 11:33:18;;;;;;;8.37;6.17;;;33.10;40.20;;;;;;5072840;28;20438;-75
2021/06/17 11:36:00;;;;;;;6.93;6.23;;;33.00;40.90;;;;;;5071943;28;20464;-76
2021/06/17 11:38:30;;;;;;;8.90;6.90;;;32.80;41.50;;;;;;5086572;28;20955;-76
2021/06/17 11:41:31;;;;;;;6.40;5.90;;;32.60;43.30;;;;;;5069916;28;20464;-76
2021/06/17 11:44:01;;;;;;;7.40;6.87;;;32.60;43.10;;;;;;5072247;28;20426;-76
2021/06/17 11:46:33;;;;;;;8.00;7.40;;;32.70;42.50;;;;;;5070025;28;20469;-75
2021/06/17 11:49:09;;;;;;;8.53;7.73;;;32.70;44.00;;;;;;5070570;28;20496;-76
2021/06/17 11:51:53;;;;;;;7.00;6.50;;;32.60;41.10;;;;;;5069358;28;20991;-76
2021/06/17 11:54:27;;;;;;;7.50;6.77;;;32.60;41.90;;;;;;5077586;28;20478;-75
2021/06/17 11:56:57;;;;;;;8.23;6.97;;;32.60;42.10;;;;;;5090259;28;20829;-75
2021/06/17 11:59:30;;;;;;;8.80;8.00;;;32.70;41.60;;;;;;5083702;28;20461;-75
2021/06/17 12:02:08;;;;;;;8.53;7.73;;;32.90;40.70;;;;;;5071148;28;20982;-76
2021/06/17 12:04:47;;;;;;;7.60;7.00;;;33.10;40.70;;;;;;5070783;28;20481;-76
2021/06/17 12:07:15;;;;;;;7.57;6.80;;;33.40;43.10;;;;;;5080274;28;20493;-75
2021/06/17 12:09:45;;;;;;;8.70;6.50;;;33.50;40.10;;;;;;5090660;28;20461;-75
2021/06/17 12:12:23;;;;;;;10.40;7.27;;;33.60;38.70;;;;;;5088551;28;20871;-75
2021/06/17 12:15:12;;;;;;;;;;;;;;;;;;;;;
2021/06/17 12:17:58;;;;;;;6.97;6.37;;;33.80;38.80;;;;;;5090993;28;20875;-76
2021/06/17 12:20:36;;;;;;;6.50;6.00;;;33.90;36.60;;;;;;5091277;28;20966;-76
2021/06/17 12:23:10;;;;;;;7.30;6.60;;;33.90;37.20;;;;;;5090209;28;20441;-76
2021/06/17 12:26:01;;;;;;;9.53;6.60;;;33.80;37.60;;;;;;5081528;28;20810;-76
2021/06/17 12:28:54;;;;;;;7.70;6.90;;;33.70;38.00;;;;;;5096208;28;20489;-75
2021/06/17 12:31:29;;;;;;;7.80;6.90;;;33.60;39.40;;;;;;5093177;28;20466;-76
2021/06/17 12:34:09;;;;;;;10.70;6.77;;;33.70;39.60;;;;;;5060633;28;20524;-76
2021/06/17 12:36:42;;;;;;;8.80;6.30;;;33.70;37.70;;;;;;5085191;28;20472;-76
2021/06/17 12:39:21;;;;;;;6.93;6.23;;;33.90;37.80;;;;;;5100377;27;20463;-76
2021/06/17 12:41:51;;;;;;;9.73;7.63;;;33.80;38.00;;;;;;5080142;28;20469;-76
2021/06/17 12:44:32;;;;;;;16.00;12.53;;;33.80;37.90;;;;;;5077043;28;20461;-76
2021/06/17 12:47:06;;;;;;;8.20;7.40;;;33.70;38.60;;;;;;5066225;28;20461;-75
2021/06/17 12:52:35;;;;;;;9.13;8.23;;;33.60;39.10;;;;;;5079273;28;20519;-75
2021/06/17 12:55:05;;;;;;;9.03;8.27;;;33.40;38.90;;;;;;5077138;28;20432;-75
2021/06/17 12:57:32;;;;;;;7.20;6.53;;;33.20;39.60;;;;;;5069948;28;20425;-75
2021/06/17 13:00:16;;;;;;;8.37;6.50;;;32.90;39.20;;;;;;5096702;28;20965;-76
2021/06/17 13:02:50;;;;;;;6.80;5.60;;;32.80;39.90;;;;;;5097265;28;20925;-75
2021/06/17 13:05:18;;;;;;;7.10;6.43;;;32.80;39.60;;;;;;5097732;28;20479;-76
2021/06/17 13:08:03;;;;;;;6.70;6.00;;;32.80;42.50;;;;;;5092733;28;20865;-75
2021/06/17 13:10:45;;;;;;;6.93;6.23;;;32.80;41.50;;;;;;5077319;28;20469;-75
2021/06/17 13:13:29;;;;;;;6.63;5.93;;;32.70;41.10;;;;;;5078157;28;20421;-75
2021/06/17 13:16:01;;;;;;;8.20;6.50;;;32.60;40.40;;;;;;5077500;28;20484;-75
2021/06/17 13:18:49;;;;;;;5.70;5.20;;;32.60;41.50;;;;;;5076271;28;20449;-75
2021/06/17 13:21:19;;;;;;;7.10;6.17;;;32.50;41.10;;;;;;5077017;28;20552;-76